メインページ
METAR-TAF:

METAR-TAF

空港 :

フォール=ド=フランス, マルティニーク

マルティニーク・エメ・セゼール国際空港

緯度: 14-36N, 経度: 061-00W, 海抜: 5m

現時点の気象観測

当レポートは19分前の06:00(UTC)に作成
南/南東の風 3kt、東/南東からの間で変化する
気温 24°C
湿度 94%
気圧 1013 hPa
視程: 6000m
高度1700ftの雲は散在している
高度2200ftの雲は散在している
高度4200ftの千切れ雲あり

METAR: TFFF 280600Z AUTO 16003KT 110V190 6000 SCT017 SCT022 BKN042 24/23 Q1013 NOSIG

時間: 02:19 (06:19 UTC)

予報

当レポートは1時間19分前の05:00(UTC)に作成
予報は28日の 06時(UTC)から 29日の 06時(UTC)まで有効
の風 6kt
視程10km以上
高度2000ftの雲は散在している
高度4000ftの雲は散在している
28日の 15時(UTC)から 28日の 21時(UTC)まで一時的に
高度2000ftの雲は散在している, 塔状積雲.

TAF: TFFF 280500Z 2806/2906 08006KT 9999 SCT020 SCT040 TEMPO 2815/2821 SCT020TCU

4,000以上の空港の気象観測と天気予報(METAR報とTAF報)

利用可能な観測所は地図上に黄色い丸と赤い丸で示す。

丸の上にカーソルを重ねると観測所名を参照できる。

次にクリックすると気象観測と天気予報を参照できる。

マップの切り替え:黒色「×」印の緑ボタンをクリックして拡大、「-」印の緑ボタンをクリックして縮小、緑色の三角印をクリックして隣りの地図に切り替え


METAR-TAF: